Time;durP1;ratioP1;P1;durP2;ratioP2;P2;SDS_P1;SDS_P2;PMS_P1;PMS_P2;Temp;Humidity;BMP_temperature;BMP_pressure;BME280_temperature;BME280_humidity;BME280_pressure;Samples;Min_cycle;Max_cycle;Signal;HPM_P1;HPM_P2
2021/11/20 00:01:17;;;;;;;0.30;0.30;;;6.00;99.90;;;;;;4956961;29;20730;-67
2021/11/20 00:03:45;;;;;;;0.40;0.40;;;6.00;99.90;;;;;;4957142;28;20174;-67
2021/11/20 00:06:23;;;;;;;0.40;0.40;;;6.10;99.90;;;;;;4957139;28;20232;-68
2021/11/20 00:08:49;;;;;;;0.40;0.40;;;6.10;99.90;;;;;;4956791;28;20197;-67
2021/11/20 00:11:17;;;;;;;0.30;0.30;;;6.10;99.90;;;;;;4956887;28;20282;-67
2021/11/20 00:13:44;;;;;;;0.30;0.30;;;6.10;99.90;;;;;;4956917;28;20201;-67
2021/11/20 00:16:12;;;;;;;0.40;0.40;;;6.10;99.90;;;;;;4956756;28;20185;-68
2021/11/20 00:18:38;;;;;;;0.30;0.30;;;6.00;99.90;;;;;;4956593;28;20197;-67
2021/11/20 00:21:11;;;;;;;0.30;0.30;;;6.00;99.90;;;;;;4956763;28;20540;-68
2021/11/20 00:23:42;;;;;;;0.30;0.30;;;6.00;99.90;;;;;;4956819;28;20180;-67
2021/11/20 00:26:10;;;;;;;0.30;0.30;;;5.90;99.90;;;;;;4956872;28;20181;-68
2021/11/20 00:28:54;;;;;;;0.30;0.30;;;5.80;99.90;;;;;;4956514;29;20169;-67
2021/11/20 00:31:21;;;;;;;0.40;0.40;;;5.80;99.90;;;;;;4956620;29;20253;-67
2021/11/20 00:33:47;;;;;;;0.30;0.30;;;5.80;99.90;;;;;;4956422;28;20173;-68
2021/11/20 00:36:14;;;;;;;0.40;0.40;;;5.80;99.90;;;;;;4956658;28;20539;-67
2021/11/20 00:38:41;;;;;;;0.40;0.40;;;5.80;99.90;;;;;;4956138;29;20565;-67
2021/11/20 00:41:11;;;;;;;0.40;0.40;;;5.80;99.90;;;;;;4956404;28;20181;-67
2021/11/20 00:43:39;;;;;;;0.30;0.30;;;5.80;99.90;;;;;;4956428;28;20166;-67
2021/11/20 00:46:05;;;;;;;0.40;0.40;;;5.70;99.90;;;;;;4956410;28;20527;-67
2021/11/20 00:48:31;;;;;;;0.40;0.40;;;5.70;99.90;;;;;;4955908;28;20602;-67
2021/11/20 00:51:03;;;;;;;0.40;0.40;;;5.70;99.90;;;;;;4956156;28;20213;-68
2021/11/20 00:53:29;;;;;;;0.40;0.40;;;5.80;99.90;;;;;;4956379;28;20177;-67
2021/11/20 00:55:56;;;;;;;0.30;0.30;;;5.80;99.90;;;;;;4956152;29;20189;-67
2021/11/20 00:58:23;;;;;;;0.30;0.30;;;5.80;99.90;;;;;;4955818;28;20201;-67
2021/11/20 01:00:54;;;;;;;0.40;0.40;;;5.90;99.90;;;;;;4955758;28;20217;-67
2021/11/20 01:03:20;;;;;;;0.30;0.30;;;5.90;99.90;;;;;;4955973;28;20575;-67
2021/11/20 01:05:46;;;;;;;0.37;0.37;;;5.90;99.90;;;;;;4955949;29;20224;-68
2021/11/20 01:08:14;;;;;;;0.30;0.30;;;5.80;99.90;;;;;;4955779;29;20409;-68
2021/11/20 01:10:43;;;;;;;0.40;0.40;;;5.80;99.90;;;;;;4955791;28;20835;-68
2021/11/20 01:13:11;;;;;;;0.40;0.40;;;5.80;99.90;;;;;;4956088;28;20178;-67
2021/11/20 01:15:40;;;;;;;0.30;0.30;;;5.80;99.90;;;;;;4955887;28;20185;-68
2021/11/20 01:18:08;;;;;;;0.30;0.30;;;5.80;99.90;;;;;;4954281;29;20229;-67
2021/11/20 01:20:35;;;;;;;0.40;0.40;;;5.80;99.90;;;;;;4955697;28;20288;-67
2021/11/20 01:23:01;;;;;;;0.30;0.30;;;5.90;99.90;;;;;;4955770;28;20595;-67
2021/11/20 01:25:26;;;;;;;0.30;0.30;;;5.90;99.90;;;;;;4955792;29;20261;-68
2021/11/20 01:27:52;;;;;;;0.30;0.30;;;6.00;99.90;;;;;;4955540;28;20177;-66
2021/11/20 01:30:19;;;;;;;0.30;0.30;;;5.90;99.90;;;;;;4955579;28;20216;-67
2021/11/20 01:32:45;;;;;;;0.40;0.40;;;5.90;99.90;;;;;;4955548;29;20393;-67
2021/11/20 01:35:11;;;;;;;0.30;0.30;;;5.90;99.90;;;;;;4955513;28;20256;-67
2021/11/20 01:37:38;;;;;;;0.40;0.40;;;5.90;99.90;;;;;;4954060;29;20652;-67
2021/11/20 01:40:11;;;;;;;0.32;0.32;;;5.90;99.90;;;;;;4955431;29;20205;-67
2021/11/20 01:42:37;;;;;;;0.30;0.30;;;5.90;99.90;;;;;;4955321;28;20205;-67
2021/11/20 01:45:17;;;;;;;0.30;0.30;;;5.90;99.90;;;;;;4955588;29;20174;-67
2021/11/20 01:48:36;;;;;;;0.30;0.30;;;5.90;99.90;;;;;;4955517;28;20166;-67
2021/11/20 01:51:12;;;;;;;0.30;0.30;;;5.80;99.90;;;;;;4934224;29;20182;-67
2021/11/20 01:53:56;;;;;;;0.40;0.40;;;5.80;99.90;;;;;;4954878;28;20557;-67
2021/11/20 01:56:31;;;;;;;0.30;0.30;;;5.70;99.90;;;;;;4955470;29;20228;-67
2021/11/20 01:59:05;;;;;;;0.40;0.40;;;5.70;99.90;;;;;;4955271;28;20204;-67
2021/11/20 02:01:47;;;;;;;0.30;0.30;;;5.70;99.90;;;;;;4955157;28;20195;-67
2021/11/20 02:04:47;;;;;;;0.30;0.30;;;5.60;99.90;;;;;;4953999;29;20186;-67
2021/11/20 02:07:41;;;;;;;0.40;0.40;;;5.60;99.90;;;;;;4955281;28;20188;-67
2021/11/20 02:10:13;;;;;;;0.32;0.32;;;5.50;99.90;;;;;;4955203;29;20584;-67
2021/11/20 02:12:46;;;;;;;0.30;0.30;;;5.50;99.90;;;;;;4955530;29;20166;-67
2021/11/20 02:15:16;;;;;;;0.30;0.30;;;5.50;99.90;;;;;;4955327;28;20180;-67
2021/11/20 02:17:50;;;;;;;0.30;0.30;;;5.50;99.90;;;;;;4953716;29;20280;-67
2021/11/20 02:20:20;;;;;;;0.30;0.30;;;5.50;99.90;;;;;;4955529;29;20677;-67
2021/11/20 02:22:46;;;;;;;0.30;0.30;;;5.50;99.90;;;;;;4955511;28;20563;-68
2021/11/20 02:25:11;;;;;;;0.30;0.30;;;5.50;99.90;;;;;;4953849;29;20188;-67
2021/11/20 02:27:44;;;;;;;0.40;0.40;;;5.50;99.90;;;;;;4955238;29;20761;-67
2021/11/20 02:30:23;;;;;;;0.30;0.30;;;5.40;99.90;;;;;;4955162;28;20432;-67
2021/11/20 02:33:14;;;;;;;0.38;0.38;;;5.30;99.90;;;;;;4955190;28;20161;-67
2021/11/20 02:35:40;;;;;;;0.30;0.30;;;5.20;99.90;;;;;;4952490;29;20610;-67
2021/11/20 02:38:10;;;;;;;0.30;0.30;;;5.30;99.90;;;;;;4954759;29;20190;-67
2021/11/20 02:40:36;;;;;;;0.35;0.35;;;5.40;99.90;;;;;;4954794;28;20204;-68
2021/11/20 02:43:02;;;;;;;0.30;0.30;;;5.40;99.90;;;;;;4955017;29;20250;-67
2021/11/20 02:45:32;;;;;;;0.30;0.30;;;5.40;99.90;;;;;;4955417;28;20591;-67
2021/11/20 02:47:58;;;;;;;0.30;0.30;;;5.40;99.90;;;;;;4954811;28;20750;-67
2021/11/20 02:50:37;;;;;;;0.30;0.30;;;5.40;99.90;;;;;;4954976;28;20262;-67
2021/11/20 02:53:06;;;;;;;0.30;0.30;;;5.40;99.90;;;;;;4955005;28;20194;-67
2021/11/20 02:55:32;;;;;;;0.40;0.40;;;5.40;99.90;;;;;;4955123;28;20181;-67
2021/11/20 02:57:59;;;;;;;0.40;0.40;;;5.40;99.90;;;;;;4954516;29;20260;-67
2021/11/20 03:00:25;;;;;;;0.30;0.30;;;5.40;99.90;;;;;;4954403;28;20218;-67
2021/11/20 03:02:51;;;;;;;0.30;0.30;;;5.50;99.90;;;;;;4954821;28;20198;-67
2021/11/20 03:05:18;;;;;;;0.30;0.30;;;5.40;99.90;;;;;;4957295;29;20237;-67
2021/11/20 03:07:44;;;;;;;0.30;0.30;;;5.40;99.90;;;;;;4957997;29;20173;-67
2021/11/20 03:10:11;;;;;;;0.30;0.30;;;5.40;99.90;;;;;;4958041;29;20201;-66
2021/11/20 03:12:36;;;;;;;0.30;0.30;;;5.30;99.90;;;;;;4958250;28;20547;-67
2021/11/20 03:15:05;;;;;;;0.30;0.30;;;5.30;99.90;;;;;;4956729;29;20188;-67
2021/11/20 03:17:31;;;;;;;0.30;0.30;;;5.30;99.90;;;;;;4957784;28;20420;-68
2021/11/20 03:19:57;;;;;;;0.40;0.40;;;5.30;99.90;;;;;;4957848;29;20620;-68
2021/11/20 03:22:31;;;;;;;0.30;0.30;;;5.30;99.90;;;;;;4958481;29;20236;-67
2021/11/20 03:24:57;;;;;;;0.30;0.30;;;5.30;99.90;;;;;;4958013;28;20229;-67
2021/11/20 03:27:23;;;;;;;0.30;0.30;;;5.40;99.90;;;;;;4957694;28;20173;-67
2021/11/20 03:29:49;;;;;;;0.30;0.30;;;5.40;99.90;;;;;;4957716;29;20606;-67
2021/11/20 03:32:17;;;;;;;0.30;0.30;;;5.40;99.90;;;;;;4957736;28;20178;-67
2021/11/20 03:34:43;;;;;;;0.30;0.30;;;5.50;99.90;;;;;;4957708;29;20260;-67
2021/11/20 03:37:10;;;;;;;0.30;0.30;;;5.50;99.90;;;;;;4957507;28;20672;-67
2021/11/20 03:39:37;;;;;;;0.30;0.30;;;5.50;99.90;;;;;;4957325;29;20216;-67
2021/11/20 03:42:04;;;;;;;0.30;0.30;;;5.50;99.90;;;;;;4957721;28;20166;-67
2021/11/20 03:44:31;;;;;;;0.30;0.30;;;5.40;99.90;;;;;;4957668;28;20583;-67
2021/11/20 03:46:57;;;;;;;0.40;0.40;;;5.40;99.90;;;;;;4957604;29;20186;-67
2021/11/20 03:49:23;;;;;;;0.33;0.33;;;5.40;99.90;;;;;;4957180;28;20244;-67
2021/11/20 03:51:48;;;;;;;0.40;0.40;;;5.40;99.90;;;;;;4957442;28;20895;-66
2021/11/20 03:54:14;;;;;;;0.30;0.30;;;5.40;99.90;;;;;;4957302;28;20252;-67
2021/11/20 03:56:40;;;;;;;0.40;0.40;;;5.30;99.90;;;;;;4957259;29;20177;-66
2021/11/20 03:59:06;;;;;;;0.37;0.37;;;5.40;99.90;;;;;;4956888;29;20464;-68
2021/11/20 04:01:32;;;;;;;0.30;0.30;;;5.40;99.90;;;;;;4956634;29;20508;-66
2021/11/20 04:03:58;;;;;;;0.38;0.38;;;5.40;99.90;;;;;;4957269;28;20178;-66
2021/11/20 04:06:24;;;;;;;0.30;0.30;;;5.20;99.90;;;;;;4957141;29;20233;-66
2021/11/20 04:08:52;;;;;;;0.32;0.32;;;5.20;99.90;;;;;;4956758;28;20436;-67
2021/11/20 04:11:21;;;;;;;0.30;0.30;;;5.00;99.90;;;;;;4956945;28;20236;-67
2021/11/20 04:13:47;;;;;;;0.30;0.30;;;5.00;99.90;;;;;;4956998;28;20602;-67
2021/11/20 04:16:15;;;;;;;0.30;0.30;;;5.00;99.90;;;;;;4956670;28;20205;-67
2021/11/20 04:18:42;;;;;;;0.30;0.30;;;4.90;99.90;;;;;;4956082;29;20201;-67
2021/11/20 04:21:09;;;;;;;0.40;0.40;;;4.90;99.90;;;;;;4956821;28;20549;-67
2021/11/20 04:23:35;;;;;;;0.60;0.57;;;5.00;99.90;;;;;;4957096;28;20200;-68
2021/11/20 04:26:02;;;;;;;0.30;0.30;;;5.00;99.90;;;;;;4956637;29;20213;-68
2021/11/20 04:28:29;;;;;;;0.50;0.50;;;5.00;99.90;;;;;;4956233;29;20275;-67
2021/11/20 04:30:55;;;;;;;0.32;0.32;;;4.90;99.90;;;;;;4956577;28;20177;-72
2021/11/20 04:33:20;;;;;;;0.30;0.30;;;5.00;99.90;;;;;;4956640;28;20177;-67
2021/11/20 04:35:46;;;;;;;0.40;0.40;;;4.80;99.90;;;;;;4956589;28;20185;-67
2021/11/20 04:38:12;;;;;;;0.30;0.30;;;4.80;99.90;;;;;;4956121;29;20453;-67
2021/11/20 04:40:38;;;;;;;0.40;0.40;;;4.80;99.90;;;;;;4955701;28;20664;-67
2021/11/20 04:43:05;;;;;;;0.32;0.32;;;4.80;99.90;;;;;;4956290;29;20174;-66
2021/11/20 04:45:33;;;;;;;0.30;0.30;;;4.80;99.90;;;;;;4956849;28;20224;-67
2021/11/20 04:47:59;;;;;;;0.30;0.30;;;4.90;99.90;;;;;;4956526;28;20255;-66
2021/11/20 04:50:26;;;;;;;0.40;0.40;;;4.90;99.90;;;;;;4955569;28;20205;-67
2021/11/20 04:52:51;;;;;;;0.30;0.30;;;4.90;99.90;;;;;;4956153;28;20178;-67
2021/11/20 04:55:20;;;;;;;0.30;0.30;;;4.90;99.90;;;;;;4956008;28;20260;-68
2021/11/20 04:57:46;;;;;;;0.30;0.30;;;5.00;99.90;;;;;;4955060;28;20720;-68
2021/11/20 05:00:18;;;;;;;0.30;0.30;;;5.00;99.90;;;;;;4955997;28;20214;-67
2021/11/20 05:02:45;;;;;;;0.30;0.30;;;5.00;99.90;;;;;;4955985;29;20157;-69
2021/11/20 05:05:11;;;;;;;0.40;0.40;;;5.00;99.90;;;;;;4955898;28;20224;-67
2021/11/20 05:07:37;;;;;;;0.30;0.30;;;4.90;99.90;;;;;;4955765;28;20244;-67
2021/11/20 05:10:04;;;;;;;0.30;0.30;;;4.70;99.90;;;;;;4956031;29;20284;-67
2021/11/20 05:12:29;;;;;;;0.40;0.40;;;4.70;99.90;;;;;;4956049;28;20166;-67
2021/11/20 05:14:55;;;;;;;0.30;0.30;;;4.80;99.90;;;;;;4955116;29;20184;-66
2021/11/20 05:17:21;;;;;;;0.57;0.57;;;4.80;99.90;;;;;;4954372;29;20200;-67
2021/11/20 05:19:46;;;;;;;0.30;0.30;;;4.90;99.90;;;;;;4956158;29;21028;-68
2021/11/20 05:22:12;;;;;;;0.30;0.30;;;4.80;99.90;;;;;;4955855;29;20213;-67
2021/11/20 05:24:37;;;;;;;0.40;0.40;;;4.90;99.90;;;;;;4955577;29;20672;-67
2021/11/20 05:27:03;;;;;;;0.30;0.30;;;5.00;99.90;;;;;;4955235;28;20696;-66
2021/11/20 05:29:41;;;;;;;0.33;0.33;;;5.10;99.90;;;;;;4955765;29;20192;-67
2021/11/20 05:32:08;;;;;;;0.32;0.32;;;5.10;99.90;;;;;;4955731;28;20505;-66
2021/11/20 05:34:34;;;;;;;0.30;0.30;;;5.00;99.90;;;;;;4955681;29;20534;-66
2021/11/20 05:37:00;;;;;;;0.30;0.30;;;5.00;99.90;;;;;;4955844;29;20665;-67
2021/11/20 05:39:25;;;;;;;0.30;0.30;;;4.90;99.90;;;;;;4955753;29;20292;-67
2021/11/20 05:41:52;;;;;;;0.30;0.30;;;4.90;99.90;;;;;;4956088;28;20220;-66
2021/11/20 05:44:18;;;;;;;0.30;0.30;;;4.90;99.90;;;;;;4956141;28;20174;-66
2021/11/20 05:46:44;;;;;;;0.30;0.30;;;5.00;99.90;;;;;;4954996;29;20177;-68
2021/11/20 05:49:10;;;;;;;0.30;0.30;;;5.00;99.90;;;;;;4955140;29;20575;-69
2021/11/20 05:51:36;;;;;;;0.30;0.30;;;4.90;99.90;;;;;;4953471;29;20421;-67
2021/11/20 05:54:04;;;;;;;0.30;0.30;;;4.90;99.90;;;;;;4955099;29;20444;-67
2021/11/20 05:56:30;;;;;;;0.30;0.30;;;4.90;99.90;;;;;;4955308;28;20963;-67
2021/11/20 05:58:56;;;;;;;0.30;0.30;;;4.90;99.90;;;;;;4954956;29;20213;-68
2021/11/20 06:01:22;;;;;;;1.80;1.70;;;4.80;99.90;;;;;;4955120;29;20185;-67
2021/11/20 06:03:49;;;;;;;0.30;0.30;;;4.80;99.90;;;;;;4955302;28;20704;-66
2021/11/20 06:06:16;;;;;;;0.30;0.30;;;4.80;99.90;;;;;;4955237;29;20550;-68
2021/11/20 06:08:42;;;;;;;0.30;0.30;;;4.90;99.90;;;;;;4953848;29;20648;-67
2021/11/20 06:11:09;;;;;;;0.30;0.30;;;5.00;99.90;;;;;;4955156;29;20193;-67
2021/11/20 06:13:35;;;;;;;0.40;0.40;;;5.10;99.90;;;;;;4955629;28;20188;-67
2021/11/20 06:16:01;;;;;;;0.30;0.30;;;5.20;99.90;;;;;;4955185;28;20264;-67
2021/11/20 06:18:26;;;;;;;0.30;0.30;;;5.30;99.90;;;;;;4953709;29;20460;-66
2021/11/20 06:20:53;;;;;;;0.30;0.30;;;5.30;99.90;;;;;;4954536;29;20181;-67
2021/11/20 06:23:20;;;;;;;0.30;0.30;;;5.30;99.90;;;;;;4955115;28;20169;-68
2021/11/20 06:25:46;;;;;;;0.35;0.35;;;5.30;99.90;;;;;;4955224;28;20173;-67
2021/11/20 06:28:11;;;;;;;0.40;0.40;;;5.20;99.90;;;;;;4954823;28;20174;-67
2021/11/20 06:30:37;;;;;;;0.30;0.30;;;5.30;99.90;;;;;;4955343;28;20554;-67
2021/11/20 06:33:04;;;;;;;0.30;0.30;;;5.20;99.90;;;;;;4955331;28;20172;-66
2021/11/20 06:35:32;;;;;;;0.30;0.30;;;5.20;99.90;;;;;;4954545;28;20174;-67
2021/11/20 06:37:58;;;;;;;0.30;0.30;;;5.20;99.90;;;;;;4955439;28;20224;-68
2021/11/20 06:40:27;;;;;;;0.30;0.30;;;5.30;99.90;;;;;;4957164;29;20574;-67
2021/11/20 06:42:54;;;;;;;0.40;0.40;;;5.40;99.90;;;;;;4958988;28;20257;-68
2021/11/20 06:45:27;;;;;;;0.38;0.38;;;5.40;99.90;;;;;;4958725;28;20181;-67
2021/11/20 06:47:54;;;;;;;0.30;0.30;;;5.40;99.90;;;;;;4958277;28;20260;-67
2021/11/20 06:50:21;;;;;;;0.35;0.35;;;5.50;99.90;;;;;;4958428;28;20215;-68
2021/11/20 06:52:49;;;;;;;0.35;0.35;;;5.50;99.90;;;;;;4958524;28;20269;-67
2021/11/20 06:55:15;;;;;;;0.30;0.30;;;5.50;99.90;;;;;;4958398;29;20177;-67
2021/11/20 07:00:26;;;;;;;0.35;0.35;;;5.40;99.90;;;;;;4957972;29;20630;-67
2021/11/20 07:03:02;;;;;;;0.32;0.32;;;5.40;99.90;;;;;;4958330;28;20256;-68
2021/11/20 07:05:31;;;;;;;0.30;0.30;;;5.30;99.90;;;;;;4958322;28;20180;-67
2021/11/20 07:07:58;;;;;;;0.30;0.30;;;5.30;99.90;;;;;;4958337;28;20228;-67
2021/11/20 07:10:24;;;;;;;0.30;0.30;;;5.30;99.90;;;;;;4957974;29;20272;-66
2021/11/20 07:12:52;;;;;;;0.30;0.30;;;5.40;99.90;;;;;;4957770;29;20184;-67
2021/11/20 07:15:19;;;;;;;0.30;0.30;;;5.50;99.90;;;;;;4957905;28;20599;-68
2021/11/20 07:17:45;;;;;;;0.35;0.35;;;5.50;99.90;;;;;;4957837;28;20173;-67
2021/11/20 07:20:11;;;;;;;0.30;0.30;;;5.50;99.90;;;;;;4956802;29;20571;-68
2021/11/20 07:22:37;;;;;;;0.30;0.30;;;5.50;99.90;;;;;;4955938;28;20174;-68
2021/11/20 07:25:03;;;;;;;0.30;0.30;;;5.50;99.90;;;;;;4957986;28;20398;-68
2021/11/20 07:27:29;;;;;;;0.40;0.40;;;5.50;99.90;;;;;;4957569;28;20666;-67
2021/11/20 07:29:55;;;;;;;0.30;0.30;;;5.50;99.90;;;;;;4957800;29;20197;-68
2021/11/20 07:32:21;;;;;;;0.30;0.30;;;5.50;99.90;;;;;;4957611;29;20245;-68
2021/11/20 07:34:47;;;;;;;0.30;0.30;;;5.50;99.90;;;;;;4958258;28;20409;-68
2021/11/20 07:37:12;;;;;;;0.30;0.30;;;5.50;99.90;;;;;;4957405;29;20181;-67
2021/11/20 07:39:38;;;;;;;0.40;0.40;;;5.50;99.90;;;;;;4957405;29;20716;-68
2021/11/20 07:42:05;;;;;;;0.30;0.30;;;5.50;99.90;;;;;;4957741;29;20262;-68
2021/11/20 07:44:31;;;;;;;0.30;0.30;;;5.60;99.90;;;;;;4957363;29;20167;-68
2021/11/20 07:46:57;;;;;;;0.30;0.30;;;6.40;99.90;;;;;;4957415;28;20708;-68
2021/11/20 07:49:23;;;;;;;1.37;1.37;;;7.10;99.90;;;;;;4956886;28;20869;-68
2021/11/20 07:51:48;;;;;;;1.17;1.17;;;7.90;99.90;;;;;;4957163;29;20762;-67
2021/11/20 07:54:14;;;;;;;0.30;0.30;;;9.00;99.90;;;;;;4956023;29;20412;-69
2021/11/20 07:56:42;;;;;;;0.30;0.30;;;9.90;99.70;;;;;;4957288;29;20283;-67
2021/11/20 07:59:10;;;;;;;0.30;0.30;;;10.70;96.90;;;;;;4957071;29;20205;-69
2021/11/20 08:01:36;;;;;;;0.30;0.30;;;11.10;95.20;;;;;;4957021;29;20269;-68
2021/11/20 08:04:02;;;;;;;0.40;0.40;;;11.40;95.00;;;;;;4957731;29;20253;-68
2021/11/20 08:06:29;;;;;;;0.40;0.40;;;12.00;94.30;;;;;;4957235;29;20162;-68
2021/11/20 08:08:55;;;;;;;0.43;0.43;;;12.10;91.90;;;;;;4956804;29;20444;-67
2021/11/20 08:11:20;;;;;;;0.30;0.30;;;11.90;91.30;;;;;;4956918;28;20186;-67
2021/11/20 08:13:46;;;;;;;0.30;0.30;;;11.90;92.60;;;;;;4957094;29;20289;-67
2021/11/20 08:16:12;;;;;;;0.30;0.30;;;12.40;91.40;;;;;;4957024;29;20308;-68
2021/11/20 08:18:38;;;;;;;0.33;0.33;;;12.80;87.90;;;;;;4956567;28;20205;-68
2021/11/20 08:21:03;;;;;;;0.30;0.30;;;13.10;86.20;;;;;;4956816;28;20181;-68
2021/11/20 08:23:31;;;;;;;0.30;0.30;;;13.20;84.50;;;;;;4956705;29;20181;-68
2021/11/20 08:25:57;;;;;;;0.30;0.30;;;13.50;82.10;;;;;;4956667;28;20187;-68
2021/11/20 08:28:25;;;;;;;0.30;0.30;;;13.70;81.20;;;;;;4956544;28;20184;-68
2021/11/20 08:30:52;;;;;;;0.30;0.30;;;13.80;80.30;;;;;;4956468;28;20433;-68
2021/11/20 08:33:18;;;;;;;0.30;0.30;;;13.70;82.10;;;;;;4956505;29;20472;-68
2021/11/20 08:35:44;;;;;;;0.40;0.40;;;13.70;81.80;;;;;;4956425;28;20406;-69
2021/11/20 08:38:12;;;;;;;0.30;0.30;;;13.70;82.30;;;;;;4956285;28;20404;-69
2021/11/20 08:40:40;;;;;;;0.40;0.40;;;14.20;82.90;;;;;;4956327;28;20425;-69
2021/11/20 08:43:07;;;;;;;0.93;0.90;;;14.60;80.70;;;;;;4956519;28;20762;-69
2021/11/20 08:45:36;;;;;;;0.30;0.30;;;15.10;78.70;;;;;;4956506;29;20548;-69
2021/11/20 08:48:02;;;;;;;0.30;0.30;;;15.40;76.40;;;;;;4956106;29;20405;-68
2021/11/20 08:50:35;;;;;;;0.30;0.30;;;16.00;75.20;;;;;;4956247;28;20417;-70
2021/11/20 08:53:02;;;;;;;0.30;0.30;;;16.50;71.80;;;;;;4956297;29;20410;-69
2021/11/20 08:55:28;;;;;;;0.63;0.63;;;16.90;69.00;;;;;;4956127;29;20416;-68
2021/11/20 08:57:54;;;;;;;0.30;0.30;;;17.20;67.90;;;;;;4954779;29;20468;-69
2021/11/20 09:00:29;;;;;;;0.30;0.30;;;17.90;68.00;;;;;;4954490;29;20500;-69
2021/11/20 09:03:12;;;;;;;0.30;0.30;;;19.00;64.30;;;;;;4955079;28;20508;-68
2021/11/20 09:05:51;;;;;;;0.30;0.30;;;20.40;59.70;;;;;;4956369;28;20886;-69
2021/11/20 09:08:34;;;;;;;0.43;0.43;;;21.70;56.40;;;;;;4955771;28;20454;-68
2021/11/20 09:11:06;;;;;;;0.50;0.50;;;22.80;52.90;;;;;;4955949;28;20914;-69
2021/11/20 09:13:41;;;;;;;0.40;0.40;;;23.30;51.50;;;;;;4956199;28;20408;-69
2021/11/20 09:16:13;;;;;;;0.40;0.40;;;23.70;49.40;;;;;;4955991;28;20408;-70
2021/11/20 09:18:40;;;;;;;0.30;0.30;;;23.90;47.70;;;;;;4955506;28;20550;-68
2021/11/20 09:21:09;;;;;;;0.93;0.90;;;24.20;46.20;;;;;;4955735;28;20424;-67
2021/11/20 09:23:35;;;;;;;0.50;0.50;;;24.30;45.80;;;;;;4955689;29;20901;-69
2021/11/20 09:26:01;;;;;;;0.33;0.33;;;24.30;45.10;;;;;;4955691;28;20448;-69
2021/11/20 09:28:27;;;;;;;0.30;0.30;;;24.40;45.80;;;;;;4955461;29;20452;-69
2021/11/20 09:30:56;;;;;;;1.23;1.23;;;24.50;45.30;;;;;;4955856;29;20252;-69
2021/11/20 09:33:23;;;;;;;0.60;0.60;;;24.50;44.70;;;;;;4955713;28;20837;-69
2021/11/20 09:35:50;;;;;;;0.30;0.30;;;24.70;45.30;;;;;;4955517;28;20402;-69
2021/11/20 09:38:18;;;;;;;0.30;0.30;;;25.00;44.70;;;;;;4955324;28;20413;-68
2021/11/20 09:40:49;;;;;;;0.60;0.50;;;24.80;44.00;;;;;;4955382;29;20804;-68
2021/11/20 09:43:23;;;;;;;0.30;0.30;;;24.50;44.70;;;;;;4955690;29;20484;-69
2021/11/20 09:45:54;;;;;;;0.60;0.60;;;24.60;45.00;;;;;;4955487;29;20409;-69
2021/11/20 09:48:33;;;;;;;1.33;1.33;;;24.60;45.10;;;;;;4955414;28;20438;-67
2021/11/20 09:51:02;;;;;;;0.60;0.60;;;24.50;45.40;;;;;;4955726;28;20776;-69
2021/11/20 09:53:28;;;;;;;0.37;0.37;;;24.50;45.60;;;;;;4955413;29;20402;-69
2021/11/20 09:56:01;;;;;;;1.27;1.27;;;24.30;45.10;;;;;;4955415;29;20496;-68
2021/11/20 09:58:34;;;;;;;0.30;0.30;;;24.20;45.50;;;;;;4955031;29;20957;-69
2021/11/20 10:01:06;;;;;;;0.70;0.50;;;24.10;44.70;;;;;;4955203;28;20433;-69
2021/11/20 10:03:41;;;;;;;0.30;0.30;;;23.70;47.20;;;;;;4955594;29;20409;-69
2021/11/20 10:06:12;;;;;;;0.30;0.30;;;23.40;47.70;;;;;;4955491;28;20401;-68
2021/11/20 10:08:43;;;;;;;0.40;0.40;;;23.30;49.00;;;;;;4955044;29;20414;-69
2021/11/20 10:11:08;;;;;;;0.60;0.60;;;23.30;47.30;;;;;;4955419;28;20414;-69
2021/11/20 10:13:53;;;;;;;0.30;0.30;;;23.50;46.70;;;;;;4957090;28;20482;-69
2021/11/20 10:16:24;;;;;;;1.17;1.17;;;23.60;47.80;;;;;;4959207;28;20181;-69
2021/11/20 10:19:05;;;;;;;0.40;0.40;;;23.00;49.00;;;;;;4958676;28;20823;-67
2021/11/20 10:21:34;;;;;;;0.30;0.30;;;22.30;49.60;;;;;;4958924;29;20768;-69
2021/11/20 10:24:24;;;;;;;0.60;0.60;;;22.20;50.80;;;;;;4958931;29;20492;-69
2021/11/20 10:27:01;;;;;;;0.30;0.30;;;22.10;51.30;;;;;;4959058;29;20459;-69
2021/11/20 10:29:57;;;;;;;0.30;0.30;;;21.70;51.20;;;;;;4957520;29;20433;-69
2021/11/20 10:32:37;;;;;;;0.40;0.40;;;21.40;52.70;;;;;;4958692;29;20483;-69
2021/11/20 10:35:14;;;;;;;0.30;0.30;;;21.10;52.00;;;;;;4958757;28;20406;-68
2021/11/20 10:38:12;;;;;;;0.30;0.30;;;20.80;52.80;;;;;;4958691;28;20403;-69
2021/11/20 10:40:59;;;;;;;0.30;0.30;;;20.30;54.50;;;;;;4958750;29;20431;-69
2021/11/20 10:43:36;;;;;;;0.47;0.47;;;19.80;55.10;;;;;;4957984;29;20407;-67
2021/11/20 10:46:18;;;;;;;0.40;0.40;;;19.40;56.70;;;;;;4958765;28;20409;-68
2021/11/20 10:48:50;;;;;;;0.30;0.30;;;19.10;58.60;;;;;;4958325;28;20398;-69
2021/11/20 10:51:29;;;;;;;0.40;0.40;;;18.60;59.10;;;;;;4958463;28;20390;-68
2021/11/20 10:54:17;;;;;;;0.30;0.30;;;18.10;60.60;;;;;;4959047;29;20441;-68
2021/11/20 10:57:01;;;;;;;0.30;0.30;;;17.50;63.40;;;;;;4958474;29;20405;-69
2021/11/20 10:59:35;;;;;;;0.30;0.30;;;17.30;64.50;;;;;;4957874;29;21139;-68
2021/11/20 11:02:36;;;;;;;0.30;0.30;;;17.20;67.00;;;;;;4958246;29;20900;-69
2021/11/20 11:05:20;;;;;;;0.30;0.30;;;16.90;67.60;;;;;;4958740;29;20493;-69
2021/11/20 11:07:58;;;;;;;0.30;0.30;;;16.80;68.60;;;;;;4958125;29;20390;-69
2021/11/20 11:10:40;;;;;;;0.30;0.30;;;16.60;69.70;;;;;;4958195;29;20418;-69
2021/11/20 11:13:10;;;;;;;0.30;0.30;;;16.60;71.80;;;;;;4958542;28;20468;-68
2021/11/20 11:16:07;;;;;;;0.30;0.30;;;16.60;70.70;;;;;;4957989;28;20943;-69
2021/11/20 11:18:49;;;;;;;0.30;0.30;;;16.60;69.30;;;;;;4949222;28;20483;-68
2021/11/20 11:21:56;;;;;;;0.40;0.40;;;16.60;70.90;;;;;;4957910;29;20400;-69
2021/11/20 11:24:50;;;;;;;0.30;0.30;;;16.70;69.80;;;;;;4956707;28;20739;-69
2021/11/20 11:27:23;;;;;;;0.30;0.30;;;16.70;70.40;;;;;;4957899;29;20402;-67
2021/11/20 11:30:11;;;;;;;0.30;0.30;;;16.60;70.00;;;;;;4957833;28;20421;-69
2021/11/20 11:32:41;;;;;;;0.30;0.30;;;16.50;70.90;;;;;;4957763;28;20977;-67
2021/11/20 11:35:26;;;;;;;0.50;0.50;;;16.40;70.50;;;;;;4957663;29;20408;-69
2021/11/20 11:38:04;;;;;;;0.30;0.30;;;16.50;71.00;;;;;;4956284;29;20409;-68
2021/11/20 11:40:48;;;;;;;0.30;0.30;;;16.40;70.10;;;;;;4958143;29;20438;-69
2021/11/20 11:43:48;;;;;;;1.07;1.07;;;16.30;70.50;;;;;;4957543;28;20403;-68
2021/11/20 11:46:23;;;;;;;0.30;0.30;;;16.20;69.60;;;;;;4946572;28;20760;-69
2021/11/20 11:48:59;;;;;;;0.30;0.30;;;16.10;70.00;;;;;;4957202;29;20493;-69
2021/11/20 11:52:08;;;;;;;0.30;0.30;;;16.00;72.30;;;;;;4957381;29;20760;-69
2021/11/20 11:54:37;;;;;;;0.30;0.30;;;15.90;71.10;;;;;;4957418;29;20510;-69
2021/11/20 11:57:15;;;;;;;0.30;0.30;;;15.70;70.10;;;;;;4957160;29;20461;-67
2021/11/20 12:00:17;;;;;;;0.43;0.43;;;15.50;70.20;;;;;;4956914;29;20462;-68
2021/11/20 12:02:50;;;;;;;0.30;0.30;;;15.30;71.70;;;;;;4957104;28;20421;-69
2021/11/20 12:05:47;;;;;;;0.30;0.30;;;15.00;72.80;;;;;;4956243;29;20499;-68
2021/11/20 12:08:41;;;;;;;0.40;0.40;;;14.80;72.60;;;;;;4956904;28;20405;-68
2021/11/20 12:11:12;;;;;;;0.30;0.30;;;14.60;72.60;;;;;;4955839;29;20421;-68
2021/11/20 12:13:40;;;;;;;0.43;0.43;;;14.50;73.30;;;;;;4957189;29;20402;-67
2021/11/20 12:16:30;;;;;;;0.30;0.30;;;14.30;74.30;;;;;;4957061;28;20443;-69
2021/11/20 12:19:06;;;;;;;0.30;0.30;;;14.20;75.50;;;;;;4955279;29;20983;-69
2021/11/20 12:21:39;;;;;;;0.30;0.30;;;14.00;76.80;;;;;;4956846;28;20380;-69
2021/11/20 12:24:29;;;;;;;0.30;0.30;;;13.90;77.90;;;;;;4956280;29;20399;-69
2021/11/20 12:27:01;;;;;;;0.30;0.30;;;13.80;78.30;;;;;;4956574;29;20420;-68
2021/11/20 12:29:55;;;;;;;0.30;0.30;;;13.70;78.50;;;;;;4956735;28;20429;-69
2021/11/20 12:33:04;;;;;;;0.40;0.40;;;13.70;79.10;;;;;;4956601;29;20389;-69
2021/11/20 12:35:50;;;;;;;0.50;0.50;;;13.60;79.00;;;;;;4956448;28;20411;-69
2021/11/20 12:38:22;;;;;;;0.30;0.30;;;13.50;80.30;;;;;;4956446;29;20504;-68
2021/11/20 12:40:57;;;;;;;0.30;0.30;;;13.20;79.60;;;;;;4956403;29;20842;-69
2021/11/20 12:44:02;;;;;;;0.30;0.30;;;13.20;80.90;;;;;;4955153;29;20405;-69
2021/11/20 12:46:46;;;;;;;0.30;0.30;;;13.30;80.10;;;;;;4945472;28;20424;-69
2021/11/20 12:49:25;;;;;;;0.30;0.30;;;13.20;80.70;;;;;;4956256;29;20773;-69
2021/11/20 12:52:21;;;;;;;0.30;0.30;;;13.10;81.40;;;;;;4955024;29;20471;-68
2021/11/20 12:55:07;;;;;;;0.70;0.70;;;13.10;80.70;;;;;;4956638;29;20437;-69
2021/11/20 12:57:39;;;;;;;0.50;0.50;;;13.20;80.30;;;;;;4955873;29;20500;-68
2021/11/20 13:00:08;;;;;;;0.30;0.30;;;13.10;80.90;;;;;;4955768;29;20468;-68
2021/11/20 13:02:40;;;;;;;0.30;0.30;;;13.10;81.80;;;;;;4955955;29;20939;-69
2021/11/20 13:05:28;;;;;;;0.40;0.40;;;13.10;82.70;;;;;;4956077;29;20409;-68
2021/11/20 13:08:00;;;;;;;0.40;0.40;;;13.10;82.40;;;;;;4955924;28;20444;-68
2021/11/20 13:10:54;;;;;;;0.40;0.40;;;12.90;82.30;;;;;;4955916;28;20852;-69
2021/11/20 13:13:23;;;;;;;0.30;0.30;;;12.90;82.90;;;;;;4956009;28;20943;-69
2021/11/20 13:16:29;;;;;;;0.30;0.30;;;12.90;84.30;;;;;;4956051;28;20830;-69
2021/11/20 13:19:00;;;;;;;0.30;0.30;;;12.80;83.50;;;;;;4955183;29;20464;-68